createdAt,value
2019-01-14T00:00:55.014Z,6.50
2019-01-14T00:03:27.461Z,6.50
2019-01-14T00:06:00.289Z,6.50
2019-01-14T00:08:32.743Z,6.50
2019-01-14T00:11:05.223Z,6.50
2019-01-14T00:13:37.671Z,6.50
2019-01-14T00:16:10.392Z,6.50
2019-01-14T00:18:43.004Z,6.50
2019-01-14T00:21:15.603Z,6.50
2019-01-14T00:23:48.008Z,6.60
2019-01-14T00:26:20.604Z,6.70
2019-01-14T00:28:53.106Z,6.60
2019-01-14T00:31:25.395Z,6.50
2019-01-14T00:33:58.172Z,6.50
2019-01-14T00:36:30.480Z,6.60
2019-01-14T00:39:04.536Z,6.60
2019-01-14T00:41:36.996Z,6.70
2019-01-14T00:44:09.387Z,6.80
2019-01-14T00:46:42.240Z,6.80
2019-01-14T00:49:14.700Z,6.70
2019-01-14T00:51:47.309Z,6.60
2019-01-14T00:54:20.087Z,6.60
2019-01-14T00:56:52.777Z,6.70
2019-01-14T00:59:25.307Z,6.70
2019-01-14T01:01:59.587Z,6.70
2019-01-14T01:04:32.197Z,6.70
2019-01-14T01:07:05.064Z,6.70
2019-01-14T01:09:37.807Z,6.70
2019-01-14T01:12:10.628Z,6.70
2019-01-14T01:14:43.192Z,6.60
2019-01-14T01:17:15.822Z,6.70
2019-01-14T01:19:48.374Z,6.70
2019-01-14T01:22:20.811Z,6.60
2019-01-14T01:24:53.673Z,6.60
2019-01-14T01:27:26.198Z,6.60
2019-01-14T01:29:59.154Z,6.60
2019-01-14T01:32:31.457Z,6.60
2019-01-14T01:35:04.482Z,6.50
2019-01-14T01:37:37.012Z,6.50
2019-01-14T01:40:14.209Z,6.60
2019-01-14T01:42:46.478Z,6.60
2019-01-14T01:45:19.285Z,6.60
2019-01-14T01:47:51.768Z,6.60
2019-01-14T01:50:23.951Z,6.60
2019-01-14T01:52:56.364Z,6.60
2019-01-14T01:55:28.994Z,6.60
2019-01-14T01:58:01.811Z,6.60
2019-01-14T02:00:34.322Z,6.70
2019-01-14T02:03:06.718Z,6.70
2019-01-14T02:05:39.067Z,6.70
2019-01-14T02:08:11.287Z,6.70
2019-01-14T02:10:43.841Z,6.60
2019-01-14T02:13:16.081Z,6.60
2019-01-14T02:15:48.306Z,6.60
2019-01-14T02:18:22.021Z,6.50
2019-01-14T02:20:54.630Z,6.60
2019-01-14T02:23:27.055Z,6.50
2019-01-14T02:25:59.574Z,6.60
2019-01-14T02:28:31.754Z,6.60
2019-01-14T02:31:04.108Z,6.50
2019-01-14T02:33:36.473Z,6.40
2019-01-14T02:36:08.978Z,6.50
2019-01-14T02:38:41.349Z,6.40
2019-01-14T02:41:13.564Z,6.30
2019-01-14T02:43:45.950Z,6.30
2019-01-14T02:46:18.658Z,6.20
2019-01-14T02:48:51.300Z,6.10
2019-01-14T02:51:23.724Z,6.20
2019-01-14T02:53:56.040Z,6.10
2019-01-14T02:56:28.359Z,6.20
2019-01-14T02:59:00.881Z,6.10
2019-01-14T03:01:33.355Z,6.00
2019-01-14T03:04:06.060Z,5.90
2019-01-14T03:06:38.907Z,5.90
2019-01-14T03:09:11.719Z,5.90
2019-01-14T03:11:44.050Z,6.00
2019-01-14T03:14:27.738Z,5.90
2019-01-14T03:17:11.121Z,5.90
2019-01-14T03:19:43.507Z,5.90
2019-01-14T03:22:26.918Z,6.00
2019-01-14T03:24:59.529Z,5.90
2019-01-14T03:27:31.930Z,5.80
2019-01-14T03:30:05.481Z,5.80
2019-01-14T03:32:38.349Z,5.80
2019-01-14T03:35:11.401Z,5.70
2019-01-14T03:37:43.787Z,5.70
2019-01-14T03:40:18.438Z,5.80
2019-01-14T03:42:50.958Z,5.90
2019-01-14T03:45:23.564Z,5.80
2019-01-14T03:47:55.970Z,5.70
2019-01-14T03:50:28.496Z,5.80
2019-01-14T03:53:00.996Z,5.80
2019-01-14T03:55:33.382Z,5.90
2019-01-14T03:58:05.806Z,5.80
2019-01-14T04:00:38.389Z,5.80
2019-01-14T04:03:10.750Z,5.70
2019-01-14T04:05:43.478Z,5.80
2019-01-14T04:08:15.856Z,5.80
2019-01-14T04:10:48.105Z,5.80
2019-01-14T04:13:20.385Z,5.80
2019-01-14T04:15:52.850Z,5.80
2019-01-14T04:18:25.402Z,5.80
2019-01-14T04:20:57.927Z,5.90
2019-01-14T04:23:30.386Z,5.90
2019-01-14T04:26:02.750Z,5.90
2019-01-14T04:28:35.344Z,5.90
2019-01-14T04:31:08.171Z,5.80
2019-01-14T04:33:40.670Z,5.70
2019-01-14T04:36:13.283Z,5.80
2019-01-14T04:38:46.038Z,5.80
2019-01-14T04:41:18.455Z,5.80
2019-01-14T04:43:51.032Z,5.80
2019-01-14T04:46:23.315Z,5.70
2019-01-14T04:48:55.967Z,5.60
2019-01-14T04:51:29.742Z,5.70
2019-01-14T04:54:01.633Z,5.70
2019-01-14T04:56:34.041Z,5.70
2019-01-14T04:59:06.687Z,5.80
2019-01-14T05:01:39.014Z,5.90
2019-01-14T05:04:11.533Z,5.90
2019-01-14T05:06:43.923Z,5.90
2019-01-14T05:09:16.412Z,5.90
2019-01-14T05:11:48.868Z,5.80
2019-01-14T05:14:21.397Z,5.80
2019-01-14T05:16:53.746Z,5.80
2019-01-14T05:19:26.103Z,5.90
2019-01-14T05:21:58.531Z,5.90
2019-01-14T05:24:30.941Z,6.00
2019-01-14T05:27:03.692Z,6.00
2019-01-14T05:29:36.023Z,6.00
2019-01-14T05:32:09.285Z,6.10
2019-01-14T05:34:41.857Z,6.00
2019-01-14T05:37:14.529Z,6.10
2019-01-14T05:39:49.798Z,6.10
2019-01-14T05:42:23.050Z,6.20
2019-01-14T05:44:56.131Z,6.10
2019-01-14T05:47:30.224Z,6.20
2019-01-14T05:50:03.182Z,6.30
2019-01-14T05:52:36.557Z,6.30
2019-01-14T05:55:10.689Z,6.30
2019-01-14T05:57:43.058Z,6.40
2019-01-14T06:00:50.393Z,6.40
2019-01-14T06:03:26.310Z,6.40
2019-01-14T06:05:58.581Z,6.40
2019-01-14T06:08:30.732Z,6.50
2019-01-14T06:11:03.356Z,6.60
2019-01-14T06:13:37.264Z,6.60
2019-01-14T06:16:09.827Z,6.60
2019-01-14T06:18:42.620Z,6.60
2019-01-14T06:21:15.252Z,6.50
2019-01-14T06:23:47.534Z,6.40
2019-01-14T06:26:20.119Z,6.20
2019-01-14T06:28:52.467Z,6.10
2019-01-14T06:31:24.948Z,6.10
2019-01-14T06:33:57.406Z,6.10
2019-01-14T06:36:29.856Z,6.10
2019-01-14T06:39:02.251Z,6.10
2019-01-14T06:41:34.755Z,6.10
2019-01-14T06:44:07.985Z,6.10
2019-01-14T06:46:40.325Z,6.10
2019-01-14T06:49:12.993Z,6.10
2019-01-14T06:51:45.612Z,6.00
2019-01-14T06:54:17.917Z,6.00
2019-01-14T06:56:50.298Z,6.00
2019-01-14T06:59:22.816Z,6.00
2019-01-14T07:01:55.204Z,5.90
2019-01-14T07:04:28.024Z,5.90
2019-01-14T07:07:00.281Z,5.90
2019-01-14T07:09:32.757Z,5.90
2019-01-14T07:12:05.271Z,5.90
2019-01-14T07:14:37.952Z,6.00
2019-01-14T07:17:10.472Z,6.00
2019-01-14T07:19:43.064Z,6.00
2019-01-14T07:22:15.588Z,6.20
2019-01-14T07:24:47.959Z,6.60
2019-01-14T07:27:20.587Z,6.90
2019-01-14T07:29:53.124Z,7.40
2019-01-14T07:32:25.853Z,7.70
2019-01-14T07:34:58.348Z,8.00
2019-01-14T07:37:31.034Z,8.20
2019-01-14T07:40:03.632Z,8.60
2019-01-14T07:42:37.604Z,8.70
2019-01-14T07:45:11.394Z,8.90
2019-01-14T07:47:43.836Z,8.90
2019-01-14T07:50:18.031Z,9.10
2019-01-14T07:52:50.859Z,9.20
2019-01-14T07:55:23.891Z,9.40
2019-01-14T07:57:56.582Z,10.00
2019-01-14T08:00:31.564Z,10.10
2019-01-14T08:03:04.153Z,10.20
2019-01-14T08:05:36.632Z,10.10
2019-01-14T08:08:13.997Z,10.20
2019-01-14T08:10:43.283Z,10.40
2019-01-14T08:13:17.390Z,10.50
2019-01-14T08:15:49.838Z,10.80
2019-01-14T08:18:33.609Z,10.40
2019-01-14T08:21:06.171Z,10.10
2019-01-14T08:23:38.672Z,10.30
2019-01-14T08:26:11.461Z,10.80
2019-01-14T08:28:43.876Z,11.30
2019-01-14T08:31:18.080Z,11.10
2019-01-14T08:33:50.965Z,10.40
2019-01-14T08:36:23.439Z,9.70
2019-01-14T08:38:55.880Z,9.60
2019-01-14T08:41:33.377Z,9.80
2019-01-14T08:44:08.515Z,9.70
2019-01-14T08:46:41.018Z,9.20
2019-01-14T08:49:13.340Z,8.50
2019-01-14T08:51:45.813Z,8.00
2019-01-14T08:54:18.291Z,7.60
2019-01-14T08:56:50.721Z,7.30
2019-01-14T08:59:23.014Z,8.00
2019-01-14T09:01:57.065Z,9.30
2019-01-14T09:04:32.565Z,9.40
2019-01-14T09:07:03.705Z,8.80
2019-01-14T09:09:35.938Z,8.50
2019-01-14T09:12:08.563Z,8.20
2019-01-14T09:14:41.119Z,7.80
2019-01-14T09:17:13.720Z,7.60
2019-01-14T09:19:46.086Z,7.40
2019-01-14T09:22:18.564Z,7.80
2019-01-14T09:24:51.017Z,8.20
2019-01-14T09:27:23.567Z,8.60
2019-01-14T09:29:55.941Z,9.20
2019-01-14T09:32:28.263Z,9.50
2019-01-14T09:35:00.634Z,9.40
2019-01-14T09:37:33.244Z,9.00
2019-01-14T09:40:07.080Z,8.80
2019-01-14T09:42:39.565Z,8.40
2019-01-14T09:45:13.854Z,8.10
2019-01-14T09:47:46.215Z,8.10
2019-01-14T09:50:20.025Z,8.00
2019-01-14T09:52:52.540Z,7.90
2019-01-14T09:55:25.044Z,7.80
2019-01-14T09:57:57.424Z,7.80
2019-01-14T10:00:29.706Z,7.80
2019-01-14T10:03:02.242Z,7.90
2019-01-14T10:05:34.861Z,8.10
2019-01-14T10:08:07.495Z,8.10
2019-01-14T10:10:40.093Z,8.20
2019-01-14T10:13:12.814Z,8.40
2019-01-14T10:15:45.331Z,8.70
2019-01-14T10:18:23.778Z,9.10
2019-01-14T10:20:56.252Z,9.10
2019-01-14T10:23:28.763Z,8.70
2019-01-14T10:26:03.253Z,8.50
2019-01-14T10:28:35.643Z,8.20
2019-01-14T10:31:07.993Z,8.10
2019-01-14T10:33:40.696Z,8.00
2019-01-14T10:36:13.216Z,8.20
2019-01-14T10:38:50.330Z,8.30
2019-01-14T10:41:19.922Z,8.30
2019-01-14T10:43:52.518Z,8.20
2019-01-14T10:46:24.803Z,7.90
2019-01-14T10:48:57.594Z,7.60
2019-01-14T10:51:29.996Z,7.30
2019-01-14T10:54:02.575Z,7.10
2019-01-14T10:56:35.005Z,7.00
2019-01-14T10:59:07.876Z,7.40
2019-01-14T11:01:40.524Z,8.10
2019-01-14T11:04:13.326Z,8.90
2019-01-14T11:06:46.247Z,9.50
2019-01-14T11:09:19.267Z,9.90
2019-01-14T11:11:51.876Z,10.10
2019-01-14T11:14:24.484Z,10.20
2019-01-14T11:16:56.890Z,10.40
2019-01-14T11:19:29.494Z,10.70
2019-01-14T11:22:02.303Z,10.90
2019-01-14T11:24:51.223Z,11.10
2019-01-14T11:27:24.364Z,11.10
2019-01-14T11:29:56.940Z,11.20
2019-01-14T11:32:29.453Z,10.90
2019-01-14T11:35:02.091Z,11.00
2019-01-14T11:37:34.531Z,11.00
2019-01-14T11:40:14.038Z,11.00
2019-01-14T11:42:47.167Z,11.10
2019-01-14T11:45:19.733Z,11.00
2019-01-14T11:47:52.765Z,10.70
2019-01-14T11:50:25.197Z,10.40
2019-01-14T11:52:57.547Z,10.40
2019-01-14T11:55:30.078Z,10.40
2019-01-14T11:58:02.618Z,10.30
2019-01-14T12:00:36.943Z,10.20
2019-01-14T12:03:09.825Z,10.10
2019-01-14T12:05:42.473Z,9.90
2019-01-14T12:08:15.323Z,9.90
2019-01-14T12:10:48.024Z,9.70
2019-01-14T12:13:20.289Z,9.50
2019-01-14T12:15:52.893Z,9.10
2019-01-14T12:18:25.174Z,9.00
2019-01-14T12:21:00.510Z,8.70
2019-01-14T12:23:32.941Z,8.50
2019-01-14T12:26:05.328Z,8.30
2019-01-14T12:28:38.126Z,8.10
2019-01-14T12:31:10.536Z,7.80
2019-01-14T12:33:43.049Z,7.70
2019-01-14T12:36:15.624Z,7.60
2019-01-14T12:38:48.206Z,7.50
2019-01-14T12:41:21.016Z,7.40
2019-01-14T12:43:53.479Z,7.40
2019-01-14T12:46:26.024Z,7.20
2019-01-14T12:49:11.129Z,7.00
2019-01-14T12:51:44.301Z,6.70
2019-01-14T12:54:17.022Z,6.50
2019-01-14T12:56:50.059Z,6.50
2019-01-14T12:59:22.587Z,6.60
2019-01-14T13:01:55.246Z,6.70
2019-01-14T13:04:28.038Z,6.70
2019-01-14T13:07:00.489Z,6.80
2019-01-14T13:09:33.419Z,7.00
2019-01-14T13:12:06.000Z,7.20
2019-01-14T13:14:38.352Z,7.10
2019-01-14T13:17:10.724Z,7.10
2019-01-14T13:19:43.201Z,7.00
2019-01-14T13:22:15.773Z,7.00
2019-01-14T13:24:48.293Z,6.90
2019-01-14T13:27:20.718Z,6.90
2019-01-14T13:29:53.681Z,6.80
2019-01-14T13:32:26.002Z,6.70
2019-01-14T13:34:58.463Z,6.50
2019-01-14T13:37:31.626Z,6.30
2019-01-14T13:40:04.557Z,6.20
2019-01-14T13:42:36.941Z,6.00
2019-01-14T13:45:20.593Z,6.10
2019-01-14T13:47:53.240Z,6.10
2019-01-14T13:50:27.498Z,6.20
2019-01-14T13:53:00.163Z,6.10
2019-01-14T13:55:33.024Z,6.10
2019-01-14T13:58:05.646Z,6.20
2019-01-14T14:00:38.188Z,6.20
2019-01-14T14:03:10.790Z,6.20
2019-01-14T14:05:43.091Z,6.20
2019-01-14T14:08:15.604Z,6.20
2019-01-14T14:10:48.085Z,6.20
2019-01-14T14:13:20.822Z,6.20
2019-01-14T14:15:53.369Z,6.10
2019-01-14T14:18:25.814Z,6.10
2019-01-14T14:20:58.334Z,6.00
2019-01-14T14:23:30.947Z,6.00
2019-01-14T14:26:03.584Z,6.00
2019-01-14T14:28:36.073Z,6.00
2019-01-14T14:31:08.768Z,6.10
2019-01-14T14:33:41.153Z,6.00
2019-01-14T14:36:13.548Z,5.90
2019-01-14T14:38:46.026Z,5.90
2019-01-14T14:41:18.280Z,5.90
2019-01-14T14:43:51.414Z,5.80
2019-01-14T14:46:23.667Z,5.80
2019-01-14T14:49:07.597Z,5.80
2019-01-14T14:51:40.089Z,5.80
2019-01-14T14:54:14.217Z,5.70
2019-01-14T14:56:46.799Z,5.70
2019-01-14T14:59:19.117Z,5.70
2019-01-14T15:01:51.683Z,5.70
2019-01-14T15:04:24.173Z,5.70
2019-01-14T15:06:56.838Z,5.70
2019-01-14T15:09:31.786Z,5.70
2019-01-14T15:12:03.734Z,5.60
2019-01-14T15:14:36.276Z,5.50
2019-01-14T15:17:10.135Z,5.40
2019-01-14T15:19:42.480Z,5.30
2019-01-14T15:22:16.766Z,5.40
2019-01-14T15:24:49.229Z,5.40
2019-01-14T15:27:21.811Z,5.40
2019-01-14T15:29:54.442Z,5.30
2019-01-14T15:32:26.971Z,5.30
2019-01-14T15:34:59.521Z,5.30
2019-01-14T15:37:31.785Z,5.30
2019-01-14T15:40:05.612Z,5.30
2019-01-14T15:42:38.946Z,5.30
2019-01-14T15:45:14.504Z,5.10
2019-01-14T15:47:47.486Z,5.10
2019-01-14T15:50:20.129Z,5.00
2019-01-14T15:52:53.029Z,4.90
2019-01-14T15:55:29.260Z,4.80
2019-01-14T15:58:01.931Z,4.80
2019-01-14T16:00:35.264Z,4.60
2019-01-14T16:03:07.693Z,4.70
2019-01-14T16:05:40.825Z,4.60
2019-01-14T16:08:16.861Z,4.60
2019-01-14T16:10:51.022Z,4.70
2019-01-14T16:13:24.942Z,4.70
2019-01-14T16:15:57.807Z,4.60
2019-01-14T16:18:31.833Z,4.70
2019-01-14T16:21:04.412Z,4.70
2019-01-14T16:23:37.098Z,4.70
2019-01-14T16:26:09.979Z,4.80
2019-01-14T16:28:43.069Z,4.80
2019-01-14T16:31:15.337Z,4.80
2019-01-14T16:33:47.973Z,4.80
2019-01-14T16:36:20.523Z,4.70
2019-01-14T16:38:53.165Z,4.70
2019-01-14T16:41:25.541Z,4.60
2019-01-14T16:43:58.227Z,4.60
2019-01-14T16:46:30.653Z,4.60
2019-01-14T16:49:03.320Z,4.60
2019-01-14T16:51:35.803Z,4.60
2019-01-14T16:54:08.636Z,4.60
2019-01-14T16:56:41.208Z,4.60
2019-01-14T16:59:13.910Z,4.60
2019-01-14T17:01:46.918Z,4.50
2019-01-14T17:04:19.714Z,4.40
2019-01-14T17:06:52.065Z,4.40
2019-01-14T17:09:24.710Z,4.40
2019-01-14T17:11:57.445Z,4.40
2019-01-14T17:14:30.189Z,4.50
2019-01-14T17:17:02.672Z,4.50
2019-01-14T17:19:35.186Z,4.40
2019-01-14T17:22:07.865Z,4.30
2019-01-14T17:24:40.817Z,4.20
2019-01-14T17:27:13.315Z,4.20
2019-01-14T17:29:46.004Z,4.20
2019-01-14T17:32:18.829Z,4.10
2019-01-14T17:34:51.433Z,4.10
2019-01-14T17:37:24.065Z,4.20
2019-01-14T17:40:09.243Z,4.10
2019-01-14T17:42:49.254Z,4.10
2019-01-14T17:45:22.190Z,4.00
2019-01-14T17:47:54.754Z,4.00
2019-01-14T17:50:27.390Z,4.00
2019-01-14T17:52:59.942Z,4.10
2019-01-14T17:55:32.762Z,4.10
2019-01-14T17:58:05.687Z,4.10
2019-01-14T18:00:38.225Z,4.00
2019-01-14T18:03:10.980Z,4.00
2019-01-14T18:05:43.441Z,4.00
2019-01-14T18:08:16.320Z,4.00
2019-01-14T18:10:49.138Z,4.00
2019-01-14T18:13:21.513Z,4.00
2019-01-14T18:15:54.348Z,4.00
2019-01-14T18:18:26.763Z,4.00
2019-01-14T18:21:05.405Z,4.00
2019-01-14T18:23:33.443Z,4.10
2019-01-14T18:26:05.778Z,4.10
2019-01-14T18:28:38.422Z,4.10
2019-01-14T18:31:10.896Z,4.10
2019-01-14T18:33:45.264Z,4.00
2019-01-14T18:36:30.378Z,3.90
2019-01-14T18:39:03.033Z,3.80
2019-01-14T18:41:35.708Z,3.80
2019-01-14T18:44:08.665Z,3.80
2019-01-14T18:46:41.336Z,3.70
2019-01-14T18:49:15.289Z,3.60
2019-01-14T18:51:48.165Z,3.60
2019-01-14T18:54:20.804Z,3.60
2019-01-14T18:56:53.650Z,3.60
2019-01-14T18:59:26.341Z,3.60
2019-01-14T19:01:58.822Z,3.60
2019-01-14T19:04:31.398Z,3.60
2019-01-14T19:07:03.929Z,3.60
2019-01-14T19:09:36.963Z,3.50
2019-01-14T19:12:09.532Z,3.50
2019-01-14T19:14:42.290Z,3.60
2019-01-14T19:17:14.681Z,3.60
2019-01-14T19:19:47.595Z,3.60
2019-01-14T19:22:20.308Z,3.60
2019-01-14T19:24:52.819Z,3.60
2019-01-14T19:27:25.241Z,3.60
2019-01-14T19:29:57.842Z,3.60
2019-01-14T19:32:38.224Z,3.70
2019-01-14T19:35:06.922Z,3.60
2019-01-14T19:37:40.968Z,3.60
2019-01-14T19:40:16.846Z,3.60
2019-01-14T19:42:50.143Z,3.60
2019-01-14T19:45:24.036Z,3.60
2019-01-14T19:47:57.176Z,3.60
2019-01-14T19:50:30.197Z,3.50
2019-01-14T19:53:02.637Z,3.50
2019-01-14T19:55:35.172Z,3.50
2019-01-14T19:58:07.801Z,3.40
2019-01-14T20:00:40.292Z,3.10
2019-01-14T20:03:12.768Z,2.70
2019-01-14T20:05:45.728Z,2.40
2019-01-14T20:08:19.556Z,2.40
2019-01-14T20:10:52.205Z,2.10
2019-01-14T20:13:24.736Z,1.90
2019-01-14T20:15:57.537Z,1.90
2019-01-14T20:18:30.109Z,1.90
2019-01-14T20:21:03.190Z,2.00
2019-01-14T20:23:35.629Z,1.90
2019-01-14T20:26:08.371Z,1.90
2019-01-14T20:28:41.240Z,1.90
2019-01-14T20:31:13.561Z,1.80
2019-01-14T20:33:47.737Z,1.70
2019-01-14T20:36:20.396Z,1.70
2019-01-14T20:38:52.998Z,1.70
2019-01-14T20:41:26.245Z,1.60
2019-01-14T20:44:05.195Z,1.60
2019-01-14T20:46:34.232Z,1.60
2019-01-14T20:49:08.556Z,1.60
2019-01-14T20:51:41.323Z,1.60
2019-01-14T20:54:14.135Z,1.60
2019-01-14T20:56:46.969Z,1.50
2019-01-14T20:59:34.534Z,1.60
2019-01-14T21:02:04.627Z,1.50
2019-01-14T21:04:37.214Z,1.50
2019-01-14T21:07:09.733Z,1.60
2019-01-14T21:09:42.248Z,1.50
2019-01-14T21:12:14.693Z,1.50
2019-01-14T21:14:47.357Z,1.40
2019-01-14T21:17:20.981Z,1.30
2019-01-14T21:19:53.541Z,1.30
2019-01-14T21:22:26.011Z,1.30
2019-01-14T21:24:58.666Z,1.20
2019-01-14T21:27:31.077Z,1.30
2019-01-14T21:30:04.680Z,1.20
2019-01-14T21:32:37.182Z,1.10
2019-01-14T21:35:10.272Z,1.10
2019-01-14T21:37:43.761Z,1.10
2019-01-14T21:40:16.370Z,1.10
2019-01-14T21:42:50.252Z,1.10
2019-01-14T21:45:22.690Z,1.00
2019-01-14T21:47:55.072Z,1.00
2019-01-14T21:50:29.178Z,1.00
2019-01-14T21:53:02.439Z,0.90
2019-01-14T21:55:34.739Z,0.90
2019-01-14T21:58:07.422Z,1.00
2019-01-14T22:00:40.854Z,1.00
2019-01-14T22:03:15.722Z,1.00
2019-01-14T22:05:48.631Z,0.90
2019-01-14T22:08:21.208Z,0.90
2019-01-14T22:10:53.813Z,0.90
2019-01-14T22:13:37.063Z,0.90
2019-01-14T22:16:10.513Z,0.90
2019-01-14T22:18:43.320Z,0.90
2019-01-14T22:21:15.805Z,0.90
2019-01-14T22:23:59.090Z,0.90
2019-01-14T22:26:33.037Z,0.90
2019-01-14T22:29:06.146Z,1.10
2019-01-14T22:31:38.831Z,1.10
2019-01-14T22:34:11.367Z,1.00
2019-01-14T22:36:43.973Z,1.00
2019-01-14T22:39:16.540Z,0.90
2019-01-14T22:41:48.992Z,0.90
2019-01-14T22:44:21.609Z,0.70
2019-01-14T22:46:54.254Z,0.70
2019-01-14T22:49:26.591Z,0.70
2019-01-14T22:51:59.094Z,0.70
2019-01-14T22:54:31.581Z,0.70
2019-01-14T22:57:04.076Z,0.60
2019-01-14T22:59:36.344Z,0.60
2019-01-14T23:02:09.566Z,0.50
2019-01-14T23:04:41.970Z,0.50
2019-01-14T23:07:14.649Z,0.50
2019-01-14T23:09:47.074Z,0.50
2019-01-14T23:12:19.839Z,0.50
2019-01-14T23:14:52.432Z,0.40
2019-01-14T23:17:24.789Z,0.50
2019-01-14T23:19:57.161Z,0.40
2019-01-14T23:22:29.604Z,0.40
2019-01-14T23:25:02.136Z,0.40
2019-01-14T23:27:34.550Z,0.40
2019-01-14T23:30:08.862Z,0.40
2019-01-14T23:32:41.506Z,0.50
2019-01-14T23:35:13.954Z,0.50
2019-01-14T23:37:46.330Z,0.60
2019-01-14T23:40:19.843Z,0.60
2019-01-14T23:42:52.236Z,0.50
2019-01-14T23:45:24.567Z,0.50
2019-01-14T23:47:57.116Z,0.50
2019-01-14T23:50:29.526Z,0.50
2019-01-14T23:53:02.064Z,0.50
2019-01-14T23:55:34.532Z,0.50
2019-01-14T23:58:07.755Z,0.50
